Time;durP1;ratioP1;P1;durP2;ratioP2;P2;SDS_P1;SDS_P2;PMS_P1;PMS_P2;Temp;Humidity;BMP_temperature;BMP_pressure;BME280_temperature;BME280_humidity;BME280_pressure;Samples;Min_cycle;Max_cycle;Signal;HPM_P1;HPM_P2
2021/03/30 00:00:25;;;;;;;5.77;3.70;;;7.60;45.80;;;;;;4988206;28;36000;-86
2021/03/30 00:02:53;;;;;;;6.37;3.67;;;7.70;46.10;;;;;;4993430;28;38568;-84
2021/03/30 00:05:23;;;;;;;8.97;3.60;;;7.90;45.70;;;;;;4978043;28;37842;-85
2021/03/30 00:07:50;;;;;;;6.17;3.50;;;8.10;45.20;;;;;;4980599;28;36502;-87
2021/03/30 00:10:22;;;;;;;4.00;2.87;;;8.30;44.30;;;;;;4977134;28;36607;-86
2021/03/30 00:12:50;;;;;;;8.60;4.23;;;8.30;44.20;;;;;;4982489;28;38175;-86
2021/03/30 00:15:17;;;;;;;7.70;3.53;;;8.20;44.20;;;;;;4984431;28;37985;-86
2021/03/30 00:17:44;;;;;;;4.13;3.40;;;8.10;44.10;;;;;;5002576;28;36875;-86
2021/03/30 00:20:14;;;;;;;5.03;3.30;;;8.00;44.30;;;;;;4999603;28;36668;-86
2021/03/30 00:22:41;;;;;;;5.57;3.50;;;7.80;44.70;;;;;;4990129;28;39259;-86
2021/03/30 00:25:10;;;;;;;4.30;3.20;;;7.70;45.00;;;;;;4988940;28;39037;-86
2021/03/30 00:27:38;;;;;;;6.37;3.60;;;7.60;45.20;;;;;;4984961;28;36873;-86
2021/03/30 00:30:08;;;;;;;6.30;3.40;;;7.60;45.40;;;;;;4976454;28;35872;-86
2021/03/30 00:32:35;;;;;;;7.43;3.30;;;7.50;45.60;;;;;;5002231;28;40569;-87
2021/03/30 00:35:03;;;;;;;6.60;3.33;;;7.40;45.70;;;;;;4982201;28;39257;-87
2021/03/30 00:37:30;;;;;;;5.03;3.47;;;7.30;45.80;;;;;;5005063;28;37692;-87
2021/03/30 00:39:57;;;;;;;5.70;3.93;;;7.30;46.00;;;;;;5010085;28;37213;-86
2021/03/30 00:42:26;;;;;;;8.70;3.73;;;7.30;46.20;;;;;;4990457;28;40614;-86
2021/03/30 00:44:57;;;;;;;6.60;3.50;;;7.20;46.40;;;;;;4990887;28;38314;-85
2021/03/30 00:47:26;;;;;;;4.70;3.00;;;7.20;46.40;;;;;;4979555;28;36480;-87
2021/03/30 00:49:56;;;;;;;8.17;3.53;;;7.10;46.70;;;;;;4989485;28;37571;-86
2021/03/30 00:52:25;;;;;;;5.50;3.30;;;7.00;47.00;;;;;;4985259;28;39102;-87
2021/03/30 00:55:18;;;;;;;4.17;3.30;;;6.90;47.00;;;;;;4999376;28;38796;-87
2021/03/30 00:57:49;;;;;;;6.33;3.83;;;6.90;47.20;;;;;;4986923;28;36650;-87
2021/03/30 01:00:19;;;;;;;8.13;4.03;;;6.80;47.30;;;;;;4980641;28;37604;-87
2021/03/30 01:02:49;;;;;;;3.63;3.00;;;6.70;47.30;;;;;;4989151;28;41407;-88
2021/03/30 01:05:17;;;;;;;6.20;3.20;;;6.70;47.50;;;;;;4990703;28;38033;-88
2021/03/30 01:07:58;;;;;;;4.60;3.60;;;6.60;47.50;;;;;;5008824;28;38035;-87
2021/03/30 01:10:39;;;;;;;5.77;3.50;;;6.50;47.80;;;;;;4998826;28;36707;-88
2021/03/30 01:13:22;;;;;;;4.07;3.67;;;6.50;48.00;;;;;;4997584;28;39283;-88
2021/03/30 01:15:57;;;;;;;4.93;3.40;;;6.50;47.90;;;;;;4973068;28;38133;-88
2021/03/30 01:18:33;;;;;;;6.00;3.90;;;6.50;47.90;;;;;;4997485;28;38457;-86
2021/03/30 01:21:30;;;;;;;3.43;3.13;;;6.50;48.00;;;;;;4988875;28;38053;-87
2021/03/30 01:24:05;;;;;;;5.60;3.40;;;6.40;48.20;;;;;;4991266;28;39682;-87
2021/03/30 01:26:52;;;;;;;6.70;3.63;;;6.40;48.10;;;;;;4989183;28;37806;-88
2021/03/30 01:29:54;;;;;;;7.40;3.50;;;6.30;48.10;;;;;;5012569;28;38745;-88
2021/03/30 01:32:32;;;;;;;8.27;4.33;;;6.30;48.40;;;;;;4992883;28;37096;-87
2021/03/30 01:35:01;;;;;;;6.80;3.20;;;6.20;48.40;;;;;;4987779;28;39271;-87
2021/03/30 01:37:36;;;;;;;6.67;3.40;;;6.20;48.60;;;;;;4991079;28;38750;-86
2021/03/30 01:40:07;;;;;;;5.90;3.80;;;6.20;48.80;;;;;;4987278;28;37350;-86
2021/03/30 01:42:35;;;;;;;9.87;3.77;;;6.20;49.30;;;;;;4987989;28;37057;-88
2021/03/30 01:45:06;;;;;;;6.53;3.83;;;6.10;48.70;;;;;;4988663;28;38344;-88
2021/03/30 01:47:37;;;;;;;7.03;3.87;;;6.10;48.90;;;;;;5004067;28;39079;-88
2021/03/30 01:50:06;;;;;;;5.40;3.50;;;6.10;48.90;;;;;;5003017;28;37878;-88
2021/03/30 01:52:35;;;;;;;5.37;4.10;;;6.10;49.00;;;;;;4990490;28;38435;-88
2021/03/30 01:55:06;;;;;;;7.27;3.87;;;6.00;49.50;;;;;;5006405;28;39708;-86
2021/03/30 01:57:33;;;;;;;4.37;3.40;;;6.00;48.80;;;;;;5005197;28;38811;-87
2021/03/30 02:00:05;;;;;;;6.13;3.13;;;6.00;49.10;;;;;;4986745;28;36498;-87
2021/03/30 02:02:42;;;;;;;4.03;3.27;;;6.00;48.90;;;;;;5004247;28;38287;-88
2021/03/30 02:05:11;;;;;;;3.77;3.20;;;6.00;48.90;;;;;;4991142;28;38368;-87
2021/03/30 02:07:38;;;;;;;4.20;3.17;;;6.00;48.90;;;;;;4990088;28;37809;-87
2021/03/30 02:10:14;;;;;;;4.00;3.40;;;5.90;49.00;;;;;;4990743;28;36594;-87
2021/03/30 02:12:44;;;;;;;4.83;4.20;;;5.90;49.20;;;;;;4987143;28;37171;-87
2021/03/30 02:15:13;;;;;;;7.10;3.93;;;5.80;49.20;;;;;;4986068;28;40041;-85
2021/03/30 02:17:46;;;;;;;6.63;4.00;;;5.80;49.20;;;;;;4987498;28;38091;-86
2021/03/30 02:20:18;;;;;;;7.57;4.23;;;5.70;49.20;;;;;;5011683;28;38150;-87
2021/03/30 02:22:50;;;;;;;5.70;3.33;;;5.70;49.40;;;;;;4998309;28;36947;-86
2021/03/30 02:25:20;;;;;;;6.10;3.50;;;5.70;49.50;;;;;;4994719;28;39871;-86
2021/03/30 02:27:49;;;;;;;6.27;3.53;;;5.70;49.40;;;;;;4994349;28;38931;-85
2021/03/30 02:30:19;;;;;;;7.10;4.00;;;5.70;49.60;;;;;;4996793;28;36889;-86
2021/03/30 02:32:48;;;;;;;5.70;3.53;;;5.70;49.60;;;;;;5004553;28;37307;-86
2021/03/30 02:35:18;;;;;;;6.13;3.50;;;5.60;49.70;;;;;;4996747;28;38855;-87
2021/03/30 02:37:47;;;;;;;5.10;3.30;;;5.60;49.80;;;;;;5005689;28;39890;-86
2021/03/30 02:40:16;;;;;;;5.17;3.40;;;5.60;49.80;;;;;;5004937;28;36875;-85
2021/03/30 02:42:46;;;;;;;5.50;3.57;;;5.70;49.70;;;;;;5008575;28;36951;-86
2021/03/30 02:45:18;;;;;;;10.37;2.90;;;5.60;49.50;;;;;;5011722;28;40609;-87
2021/03/30 02:47:47;;;;;;;3.80;2.93;;;5.60;49.50;;;;;;5019868;28;38121;-85
2021/03/30 02:50:14;;;;;;;4.17;3.60;;;5.60;49.60;;;;;;4999666;28;38825;-86
2021/03/30 02:52:43;;;;;;;6.17;3.10;;;5.50;49.60;;;;;;5009105;28;37346;-86
2021/03/30 02:55:10;;;;;;;6.57;3.87;;;5.50;49.80;;;;;;5009892;28;39914;-86
2021/03/30 02:57:41;;;;;;;5.20;3.10;;;5.40;49.80;;;;;;5010490;28;37863;-86
2021/03/30 03:00:13;;;;;;;4.20;3.03;;;5.40;50.10;;;;;;5010558;28;37847;-85
2021/03/30 03:02:42;;;;;;;5.20;3.30;;;5.40;50.20;;;;;;5008402;28;36631;-86
2021/03/30 03:05:11;;;;;;;4.87;3.70;;;5.30;50.20;;;;;;5011559;28;40795;-85
2021/03/30 03:07:39;;;;;;;7.13;3.50;;;5.30;50.40;;;;;;5009678;28;38016;-86
2021/03/30 03:10:08;;;;;;;8.73;3.20;;;5.30;50.40;;;;;;5011799;28;38011;-86
2021/03/30 03:12:38;;;;;;;4.50;2.90;;;5.40;50.50;;;;;;5012569;28;37359;-86
2021/03/30 03:15:08;;;;;;;3.90;2.93;;;5.40;50.20;;;;;;5009158;28;38570;-86
2021/03/30 03:17:36;;;;;;;4.13;2.93;;;5.40;50.20;;;;;;5013506;28;39493;-86
2021/03/30 03:20:07;;;;;;;5.90;3.27;;;5.40;50.10;;;;;;5008013;28;37046;-86
2021/03/30 03:22:35;;;;;;;8.77;3.53;;;5.40;50.20;;;;;;5008645;28;36601;-85
2021/03/30 03:25:03;;;;;;;6.03;4.10;;;5.30;50.20;;;;;;5013235;28;41221;-86
2021/03/30 03:27:30;;;;;;;8.43;4.00;;;5.30;50.40;;;;;;5015487;28;38907;-86
2021/03/30 03:29:58;;;;;;;5.70;3.50;;;5.20;50.30;;;;;;5016479;28;37916;-86
2021/03/30 03:32:25;;;;;;;6.50;3.53;;;5.20;50.50;;;;;;5017123;28;37279;-87
2021/03/30 03:34:52;;;;;;;5.00;3.30;;;5.20;50.70;;;;;;5019529;28;39906;-87
2021/03/30 03:37:20;;;;;;;7.77;4.00;;;5.10;50.60;;;;;;5015799;28;37901;-87
2021/03/30 03:39:50;;;;;;;6.57;4.80;;;5.10;50.50;;;;;;5018997;28;38924;-86
2021/03/30 03:42:17;;;;;;;8.60;4.00;;;5.10;50.60;;;;;;5016851;28;38048;-88
2021/03/30 03:44:44;;;;;;;6.53;3.87;;;5.00;50.60;;;;;;5013429;28;38242;-86
2021/03/30 03:47:12;;;;;;;7.93;4.20;;;5.00;50.70;;;;;;5017720;28;41446;-86
2021/03/30 03:49:41;;;;;;;7.17;3.57;;;5.00;50.90;;;;;;5014364;28;36781;-85
2021/03/30 03:52:12;;;;;;;5.33;3.43;;;5.00;51.00;;;;;;5005720;28;37565;-84
2021/03/30 03:54:45;;;;;;;5.83;3.73;;;5.00;50.90;;;;;;5011294;28;40487;-86
2021/03/30 03:57:18;;;;;;;8.17;3.83;;;5.00;50.90;;;;;;5029609;28;39236;-83
2021/03/30 03:59:46;;;;;;;13.63;4.33;;;5.00;50.80;;;;;;5034712;28;39073;-85
2021/03/30 04:02:16;;;;;;;5.27;3.60;;;4.90;50.70;;;;;;5035314;28;38423;-85
2021/03/30 04:04:48;;;;;;;4.83;3.60;;;4.90;50.90;;;;;;5032440;28;39316;-87
2021/03/30 04:07:19;;;;;;;7.40;3.73;;;4.90;51.00;;;;;;5034410;28;38781;-85
2021/03/30 04:09:51;;;;;;;7.60;3.77;;;4.80;51.00;;;;;;5035506;28;39440;-84
2021/03/30 04:12:20;;;;;;;8.33;4.40;;;4.80;51.00;;;;;;5038768;28;38673;-86
2021/03/30 04:14:48;;;;;;;6.30;4.10;;;4.70;50.90;;;;;;5037971;28;38838;-85
2021/03/30 04:17:16;;;;;;;5.80;3.30;;;4.70;51.00;;;;;;5026250;28;39582;-85
2021/03/30 04:19:44;;;;;;;8.40;4.10;;;4.60;51.10;;;;;;5030885;28;36504;-86
2021/03/30 04:22:14;;;;;;;7.93;4.00;;;4.60;51.20;;;;;;5044576;28;38291;-85
2021/03/30 04:24:42;;;;;;;8.17;4.67;;;4.60;51.10;;;;;;5042518;28;39560;-86
2021/03/30 04:27:10;;;;;;;4.23;3.30;;;4.50;51.10;;;;;;5034564;28;39910;-86
2021/03/30 04:29:38;;;;;;;5.07;3.60;;;4.50;51.30;;;;;;5036538;28;38215;-86
2021/03/30 04:32:07;;;;;;;6.67;3.70;;;4.40;51.50;;;;;;5013735;28;35812;-85
2021/03/30 04:34:34;;;;;;;7.10;4.00;;;4.50;52.20;;;;;;5015963;28;38365;-86
2021/03/30 04:37:01;;;;;;;3.90;3.30;;;4.60;51.50;;;;;;5032809;28;38637;-86
2021/03/30 04:39:28;;;;;;;6.90;4.43;;;4.60;51.30;;;;;;5034535;28;37898;-86
2021/03/30 04:41:55;;;;;;;8.40;5.10;;;4.50;51.40;;;;;;5031328;28;37050;-85
2021/03/30 04:44:23;;;;;;;7.37;4.30;;;4.50;51.70;;;;;;5025379;28;38468;-85
2021/03/30 04:46:50;;;;;;;4.50;3.80;;;4.50;51.60;;;;;;5041550;28;38925;-85
2021/03/30 04:49:17;;;;;;;4.97;4.00;;;4.40;51.60;;;;;;5027653;28;38007;-86
2021/03/30 04:51:44;;;;;;;11.40;4.23;;;4.40;51.70;;;;;;5004897;28;36954;-85
2021/03/30 04:54:11;;;;;;;7.40;4.53;;;4.40;51.80;;;;;;5015469;28;38603;-86
2021/03/30 04:56:38;;;;;;;9.37;4.00;;;4.40;51.90;;;;;;5029251;28;39871;-85
2021/03/30 04:59:09;;;;;;;7.47;4.53;;;4.30;52.00;;;;;;5026969;28;38176;-85
2021/03/30 05:01:37;;;;;;;10.60;4.53;;;4.30;52.20;;;;;;5014714;28;35927;-86
2021/03/30 05:04:04;;;;;;;10.20;5.03;;;4.30;52.30;;;;;;5015615;28;40103;-86
2021/03/30 05:06:31;;;;;;;9.53;4.43;;;4.30;52.30;;;;;;5010544;28;37861;-86
2021/03/30 05:08:59;;;;;;;7.47;5.33;;;4.40;52.40;;;;;;5000659;28;38396;-85
2021/03/30 05:11:26;;;;;;;11.70;4.90;;;4.40;52.30;;;;;;5013052;28;35868;-85
2021/03/30 05:13:53;;;;;;;7.30;5.40;;;4.40;52.30;;;;;;5032263;28;39649;-85
2021/03/30 05:16:20;;;;;;;11.23;5.40;;;4.40;52.20;;;;;;5025943;28;39119;-85
2021/03/30 05:18:48;;;;;;;6.17;4.93;;;4.40;52.40;;;;;;5014997;28;37837;-85
2021/03/30 05:21:17;;;;;;;14.60;4.17;;;4.40;52.30;;;;;;5004713;28;37161;-85
2021/03/30 05:23:44;;;;;;;6.43;4.50;;;4.40;52.30;;;;;;4988995;28;38684;-85
2021/03/30 05:26:11;;;;;;;8.33;4.93;;;4.60;52.50;;;;;;5009562;28;39687;-85
2021/03/30 05:28:44;;;;;;;7.07;3.50;;;4.80;52.60;;;;;;5011412;28;38139;-84
2021/03/30 05:31:11;;;;;;;8.30;4.23;;;5.00;52.40;;;;;;4998603;28;37241;-85
2021/03/30 05:33:38;;;;;;;7.90;4.33;;;5.30;51.70;;;;;;4996739;28;38577;-87
2021/03/30 05:36:08;;;;;;;6.40;4.60;;;5.40;51.10;;;;;;4995872;28;37783;-89
2021/03/30 05:38:37;;;;;;;9.87;4.90;;;5.60;50.60;;;;;;5013522;28;39145;-91
2021/03/30 05:41:06;;;;;;;10.20;5.00;;;5.70;50.00;;;;;;5001121;28;35363;-88
2021/03/30 05:43:33;;;;;;;8.30;5.00;;;5.80;49.50;;;;;;4999597;28;39716;-90
2021/03/30 05:46:01;;;;;;;12.83;4.73;;;5.80;49.40;;;;;;4991391;28;37698;-88
2021/03/30 05:48:32;;;;;;;8.83;5.17;;;5.90;49.10;;;;;;5012853;28;37547;-89
2021/03/30 05:50:59;;;;;;;7.83;4.33;;;5.90;48.80;;;;;;4995415;28;35830;-88
2021/03/30 05:53:28;;;;;;;8.67;4.30;;;6.00;48.80;;;;;;5017538;28;39678;-88
2021/03/30 05:56:10;;;;;;;27.30;6.50;;;6.00;49.10;;;;;;5005195;28;37811;-89
2021/03/30 05:58:46;;;;;;;9.20;5.70;;;6.70;50.00;;;;;;5010676;28;38409;-87
2021/03/30 06:01:21;;;;;;;9.60;5.53;;;7.60;48.00;;;;;;5029928;28;38500;-87
2021/03/30 06:03:50;;;;;;;7.90;4.30;;;8.20;46.30;;;;;;5020803;28;39130;-88
2021/03/30 06:06:21;;;;;;;16.53;4.20;;;8.50;44.30;;;;;;5010459;28;39863;-86
2021/03/30 06:08:49;;;;;;;15.60;5.20;;;9.10;43.80;;;;;;4994070;28;36948;-87
2021/03/30 06:11:17;;;;;;;7.57;4.10;;;9.90;42.40;;;;;;4992480;28;38579;-89
2021/03/30 06:13:46;;;;;;;12.03;4.73;;;11.10;39.80;;;;;;5010833;28;39412;-88
2021/03/30 06:16:25;;;;;;;6.83;4.57;;;12.50;37.10;;;;;;5011206;28;39523;-88
2021/03/30 06:19:02;;;;;;;13.97;5.90;;;13.60;34.50;;;;;;5003914;28;37903;-89
2021/03/30 06:21:29;;;;;;;16.97;5.90;;;14.10;32.70;;;;;;5030023;28;36798;-87
2021/03/30 06:23:59;;;;;;;8.23;5.20;;;14.10;32.20;;;;;;5021749;28;39654;-89
2021/03/30 06:26:27;;;;;;;13.27;5.53;;;14.20;31.60;;;;;;5008979;28;38609;-88
2021/03/30 06:28:54;;;;;;;11.10;5.37;;;14.20;31.40;;;;;;5021179;28;38079;-88
2021/03/30 06:31:21;;;;;;;10.70;6.40;;;13.80;31.70;;;;;;5017824;28;36856;-88
2021/03/30 06:33:51;;;;;;;20.63;6.97;;;13.30;32.10;;;;;;5028419;28;39469;-88
2021/03/30 06:36:20;;;;;;;11.60;5.10;;;12.70;33.40;;;;;;5027339;28;40001;-88
2021/03/30 06:38:49;;;;;;;9.50;5.27;;;12.50;34.40;;;;;;5024263;28;38080;-87
2021/03/30 06:41:45;;;;;;;10.77;5.53;;;13.00;34.60;;;;;;4991848;28;35752;-87
2021/03/30 06:44:26;;;;;;;12.63;5.50;;;14.80;33.20;;;;;;5021726;28;39710;-88
2021/03/30 06:47:01;;;;;;;12.50;5.57;;;17.40;29.60;;;;;;5025569;28;38711;-90
2021/03/30 06:49:30;;;;;;;11.17;5.23;;;20.20;27.20;;;;;;5017972;28;36821;-89
2021/03/30 06:51:58;;;;;;;33.90;5.93;;;22.50;25.00;;;;;;5015529;28;37189;-91
2021/03/30 06:54:26;;;;;;;13.80;5.97;;;24.50;22.90;;;;;;5009188;28;39139;-89
2021/03/30 06:56:57;;;;;;;18.17;7.97;;;26.30;21.60;;;;;;5023281;28;39110;-90
2021/03/30 06:59:25;;;;;;;22.03;7.70;;;27.70;20.50;;;;;;5008137;28;37216;-89
2021/03/30 07:01:55;;;;;;;10.70;5.90;;;28.80;19.00;;;;;;5006897;28;36210;-88
2021/03/30 07:04:22;;;;;;;13.73;6.23;;;29.60;18.30;;;;;;5024087;28;38253;-89
2021/03/30 07:06:51;;;;;;;14.87;6.50;;;30.20;17.90;;;;;;5030146;28;39178;-89
2021/03/30 07:09:21;;;;;;;11.43;6.00;;;30.90;16.90;;;;;;5018768;28;37149;-90
2021/03/30 07:11:51;;;;;;;9.60;6.07;;;31.40;16.00;;;;;;5039866;28;37710;-91
2021/03/30 07:14:19;;;;;;;6.60;4.90;;;31.80;15.50;;;;;;5019797;28;38514;-88
2021/03/30 07:16:53;;;;;;;8.03;4.63;;;32.40;15.50;;;;;;5043217;28;38934;-89
2021/03/30 07:19:23;;;;;;;7.20;5.50;;;32.90;14.90;;;;;;5021618;28;38241;-90
2021/03/30 07:22:00;;;;;;;5.93;4.97;;;33.30;14.60;;;;;;4997976;28;36742;-89
2021/03/30 07:24:32;;;;;;;8.63;5.30;;;33.60;14.10;;;;;;5008527;28;40815;-89
2021/03/30 07:27:03;;;;;;;12.10;5.73;;;34.20;13.50;;;;;;5020832;28;39643;-92
2021/03/30 07:29:37;;;;;;;7.70;5.00;;;34.70;13.10;;;;;;4996293;28;37995;-90
2021/03/30 07:32:10;;;;;;;9.93;5.70;;;35.20;12.50;;;;;;5002346;28;36410;-93
2021/03/30 07:34:46;;;;;;;5.73;5.17;;;35.50;12.60;;;;;;5013025;28;39936;-90
2021/03/30 07:37:18;;;;;;;9.70;5.63;;;36.00;12.20;;;;;;4992576;28;37850;-92
2021/03/30 07:39:50;;;;;;;16.33;5.57;;;36.40;11.70;;;;;;4999153;28;37028;-89
2021/03/30 07:42:17;;;;;;;17.57;5.50;;;36.40;11.50;;;;;;5020996;28;37300;-91
2021/03/30 07:44:49;;;;;;;9.27;5.50;;;36.50;11.20;;;;;;4995840;28;38821;-91
2021/03/30 07:47:18;;;;;;;4.97;4.47;;;36.60;11.00;;;;;;5012223;28;39063;-91
2021/03/30 07:49:48;;;;;;;12.93;5.00;;;36.90;11.10;;;;;;5001973;28;36787;-90
2021/03/30 07:52:20;;;;;;;7.73;4.90;;;37.10;10.70;;;;;;5013075;28;38383;-92
2021/03/30 07:55:16;;;;;;;7.80;5.23;;;37.60;10.50;;;;;;5015292;28;39364;-92
2021/03/30 07:58:07;;;;;;;7.30;4.90;;;37.80;10.50;;;;;;5014376;28;39108;-92
2021/03/30 08:01:05;;;;;;;9.73;5.63;;;38.10;10.30;;;;;;4996239;28;38341;-89
2021/03/30 08:03:34;;;;;;;6.97;5.30;;;38.10;9.80;;;;;;5015803;28;37190;-90
2021/03/30 08:06:16;;;;;;;6.83;4.53;;;38.40;9.80;;;;;;5004134;28;38204;-89
2021/03/30 08:08:49;;;;;;;12.00;5.10;;;38.30;9.60;;;;;;5029913;28;39358;-89
2021/03/30 08:11:37;;;;;;;9.50;4.93;;;38.40;9.60;;;;;;5031146;28;39536;-89
2021/03/30 08:14:05;;;;;;;8.23;4.73;;;38.40;9.40;;;;;;5024725;28;37775;-89
2021/03/30 08:16:38;;;;;;;5.70;4.50;;;38.80;9.20;;;;;;5016277;28;39909;-90
2021/03/30 08:19:07;;;;;;;10.63;4.90;;;39.20;8.90;;;;;;5025750;28;39659;-88
2021/03/30 08:21:52;;;;;;;12.70;5.77;;;39.50;9.00;;;;;;5017092;28;38087;-89
2021/03/30 08:24:20;;;;;;;7.60;4.63;;;39.60;8.80;;;;;;5042832;28;37431;-89
2021/03/30 08:26:48;;;;;;;19.63;6.30;;;39.70;8.70;;;;;;5025650;28;39332;-91
2021/03/30 08:29:19;;;;;;;16.70;6.53;;;40.10;8.60;;;;;;5026264;28;39609;-89
2021/03/30 08:31:48;;;;;;;9.40;4.80;;;40.00;8.30;;;;;;5034370;28;37974;-90
2021/03/30 08:34:17;;;;;;;9.43;4.37;;;39.70;8.30;;;;;;5017870;28;36871;-91
2021/03/30 08:36:49;;;;;;;12.73;5.50;;;39.50;8.00;;;;;;5023130;28;39713;-89
2021/03/30 08:39:33;;;;;;;9.40;5.33;;;39.60;8.40;;;;;;5013034;28;39226;-90
2021/03/30 08:42:14;;;;;;;21.33;5.80;;;40.10;7.90;;;;;;5006319;28;37934;-91
2021/03/30 08:44:48;;;;;;;12.97;5.80;;;39.90;7.90;;;;;;5027106;28;36937;-90
2021/03/30 08:47:28;;;;;;;8.90;5.70;;;40.20;8.00;;;;;;4989510;28;39425;-91
2021/03/30 08:50:12;;;;;;;8.23;5.53;;;40.60;7.70;;;;;;5011146;28;39283;-91
2021/03/30 08:52:39;;;;;;;9.40;5.20;;;40.90;7.40;;;;;;4992662;28;37117;-90
2021/03/30 08:55:09;;;;;;;14.87;5.97;;;41.00;7.30;;;;;;5006985;28;37351;-90
2021/03/30 08:57:40;;;;;;;9.50;4.90;;;41.60;7.50;;;;;;4999933;28;38760;-90
2021/03/30 09:00:09;;;;;;;6.80;4.80;;;41.80;7.40;;;;;;4993878;28;37722;-91
2021/03/30 09:02:37;;;;;;;7.47;5.03;;;41.30;7.30;;;;;;5012242;28;39009;-90
2021/03/30 09:05:14;;;;;;;8.17;4.97;;;41.50;7.30;;;;;;4992197;28;36799;-89
2021/03/30 09:07:45;;;;;;;5.73;4.60;;;41.60;7.00;;;;;;4991718;28;39761;-90
2021/03/30 09:10:14;;;;;;;7.90;5.73;;;41.50;7.40;;;;;;5015257;28;39065;-91
2021/03/30 09:12:42;;;;;;;6.90;5.07;;;41.80;7.00;;;;;;4992955;28;37932;-88
2021/03/30 09:15:11;;;;;;;6.20;4.90;;;41.80;7.30;;;;;;5006744;28;36574;-90
2021/03/30 09:17:57;;;;;;;11.50;4.87;;;41.90;6.80;;;;;;5011733;28;39924;-92
2021/03/30 09:20:28;;;;;;;22.53;6.27;;;42.30;6.80;;;;;;5002299;28;38207;-95
2021/03/30 09:22:59;;;;;;;9.80;4.87;;;42.20;6.90;;;;;;4994554;28;37069;-87
2021/03/30 09:25:34;;;;;;;11.20;5.20;;;42.60;6.80;;;;;;5022758;28;38581;-87
2021/03/30 09:28:04;;;;;;;20.40;6.13;;;42.40;6.80;;;;;;4990654;28;39322;-87
2021/03/30 09:30:31;;;;;;;15.53;5.10;;;42.50;6.70;;;;;;4998016;28;37364;-90
2021/03/30 09:33:02;;;;;;;8.40;4.80;;;42.40;6.90;;;;;;5003637;28;36900;-88
2021/03/30 09:35:29;;;;;;;8.60;5.03;;;42.30;7.00;;;;;;4998458;28;35932;-87
2021/03/30 09:38:00;;;;;;;7.10;5.50;;;42.60;7.00;;;;;;5004328;28;39652;-88
2021/03/30 09:40:29;;;;;;;7.17;5.20;;;42.20;6.70;;;;;;5019108;28;38867;-87
2021/03/30 09:42:58;;;;;;;6.93;5.13;;;42.30;6.60;;;;;;5001169;28;36863;-90
2021/03/30 09:45:28;;;;;;;13.43;5.30;;;42.60;6.60;;;;;;4999197;28;36169;-90
2021/03/30 09:47:56;;;;;;;6.87;5.10;;;42.70;6.70;;;;;;4994660;28;39880;-89
2021/03/30 09:50:26;;;;;;;19.00;7.03;;;43.00;6.50;;;;;;5007544;28;39195;-88
2021/03/30 09:52:53;;;;;;;6.23;4.70;;;43.00;6.50;;;;;;5010274;28;38290;-91
2021/03/30 09:55:31;;;;;;;6.73;5.50;;;43.00;6.60;;;;;;5001107;28;35770;-90
2021/03/30 09:58:12;;;;;;;6.70;5.30;;;42.90;6.60;;;;;;5018998;28;40690;-88
2021/03/30 10:00:41;;;;;;;6.00;5.40;;;42.60;6.90;;;;;;5015855;28;38067;-88
2021/03/30 10:03:10;;;;;;;10.93;5.23;;;42.10;6.60;;;;;;5010932;28;37262;-89
2021/03/30 10:05:44;;;;;;;5.80;5.30;;;41.80;7.20;;;;;;5012225;28;37356;-87
2021/03/30 10:08:19;;;;;;;8.47;6.30;;;40.90;7.20;;;;;;5015614;28;38919;-87
2021/03/30 10:10:48;;;;;;;9.40;5.30;;;40.90;7.20;;;;;;5010641;28;39574;-87
2021/03/30 10:13:26;;;;;;;6.37;5.30;;;41.00;7.20;;;;;;5019630;28;38304;-87
2021/03/30 10:15:54;;;;;;;11.40;5.80;;;41.70;7.60;;;;;;5004832;28;35946;-91
2021/03/30 10:18:23;;;;;;;10.13;5.20;;;42.00;7.40;;;;;;5034144;28;41055;-90
2021/03/30 10:20:53;;;;;;;8.33;5.10;;;42.00;6.90;;;;;;5008274;28;37598;-89
2021/03/30 10:23:25;;;;;;;6.60;5.63;;;42.20;7.00;;;;;;5017186;28;37997;-89
2021/03/30 10:25:52;;;;;;;10.77;6.10;;;42.20;7.20;;;;;;5009502;28;38864;-87
2021/03/30 10:28:30;;;;;;;6.40;5.37;;;41.70;7.20;;;;;;5000066;28;38276;-87
2021/03/30 10:31:01;;;;;;;19.10;6.60;;;41.90;7.40;;;;;;5013972;28;39207;-89
2021/03/30 10:33:38;;;;;;;9.20;7.13;;;41.80;7.30;;;;;;4999736;28;38036;-87
2021/03/30 10:36:14;;;;;;;6.67;5.97;;;41.60;7.40;;;;;;5003251;28;36644;-90
2021/03/30 10:38:41;;;;;;;11.23;6.00;;;41.30;7.40;;;;;;5001976;28;39231;-89
2021/03/30 10:41:15;;;;;;;8.60;5.90;;;41.20;7.40;;;;;;5000495;28;38011;-88
2021/03/30 10:43:42;;;;;;;13.47;6.67;;;41.10;7.20;;;;;;4995299;28;37422;-88
2021/03/30 10:46:21;;;;;;;7.77;5.70;;;40.80;7.40;;;;;;4995018;28;35755;-88
2021/03/30 10:48:59;;;;;;;28.10;7.13;;;40.80;7.70;;;;;;5007810;28;38311;-88
2021/03/30 10:51:32;;;;;;;8.40;5.43;;;40.70;7.80;;;;;;5002199;28;37996;-86
2021/03/30 10:54:04;;;;;;;11.57;5.77;;;40.40;7.90;;;;;;5014133;28;37476;-89
2021/03/30 10:56:33;;;;;;;12.40;5.70;;;40.20;7.70;;;;;;5019585;28;37925;-88
2021/03/30 10:59:08;;;;;;;11.00;5.60;;;39.50;8.10;;;;;;5003523;28;38697;-89
2021/03/30 11:01:36;;;;;;;10.00;4.87;;;39.10;7.90;;;;;;5026573;28;40109;-89
2021/03/30 11:04:04;;;;;;;8.77;5.60;;;38.50;8.00;;;;;;5000528;28;36812;-91
2021/03/30 11:06:33;;;;;;;11.67;6.93;;;37.90;8.30;;;;;;5020134;28;38073;-88
2021/03/30 11:09:00;;;;;;;9.53;5.63;;;37.30;8.70;;;;;;5022299;28;40509;-88
2021/03/30 11:11:27;;;;;;;21.10;5.10;;;36.00;9.10;;;;;;5013360;28;37935;-86
2021/03/30 11:13:56;;;;;;;7.67;5.00;;;35.40;9.20;;;;;;5002103;28;38784;-87
2021/03/30 11:16:23;;;;;;;10.90;5.57;;;35.20;9.70;;;;;;5023830;28;37113;-89
2021/03/30 11:18:50;;;;;;;10.77;5.57;;;34.90;10.00;;;;;;5027405;28;40743;-89
2021/03/30 11:21:17;;;;;;;18.80;6.30;;;34.10;10.00;;;;;;4994440;28;37921;-90
2021/03/30 11:23:48;;;;;;;11.70;5.47;;;33.60;10.70;;;;;;5023895;28;38100;-89
2021/03/30 11:26:17;;;;;;;8.20;5.30;;;33.30;10.50;;;;;;5006326;28;35898;-86
2021/03/30 11:28:47;;;;;;;7.10;5.60;;;32.90;11.20;;;;;;5023202;28;39889;-88
2021/03/30 11:31:25;;;;;;;21.93;6.90;;;32.20;10.90;;;;;;5018998;28;39358;-87
2021/03/30 11:33:58;;;;;;;9.33;5.20;;;31.80;11.10;;;;;;5015950;28;36123;-87
2021/03/30 11:36:27;;;;;;;9.90;5.40;;;31.00;12.00;;;;;;5007389;28;35975;-87
2021/03/30 11:38:55;;;;;;;5.87;5.27;;;30.40;12.60;;;;;;5026929;28;41033;-87
2021/03/30 11:41:23;;;;;;;5.33;4.33;;;29.90;12.00;;;;;;5022396;28;39729;-89
2021/03/30 11:43:52;;;;;;;7.10;5.10;;;29.30;11.70;;;;;;5012146;28;37328;-89
2021/03/30 11:46:22;;;;;;;7.10;4.60;;;28.80;12.40;;;;;;5005443;28;36199;-89
2021/03/30 11:48:52;;;;;;;6.73;4.83;;;28.10;11.80;;;;;;5003724;28;39053;-87
2021/03/30 11:51:22;;;;;;;9.77;5.17;;;27.50;12.40;;;;;;5016511;28;39060;-89
2021/03/30 11:53:50;;;;;;;6.80;4.50;;;26.90;12.90;;;;;;5026219;28;38020;-90
2021/03/30 11:56:18;;;;;;;7.63;4.67;;;26.80;14.10;;;;;;5007143;28;36042;-88
2021/03/30 11:58:45;;;;;;;8.50;4.43;;;26.50;13.90;;;;;;5031396;28;40724;-88
2021/03/30 12:01:12;;;;;;;6.77;3.90;;;26.30;14.10;;;;;;5025852;28;40732;-87
2021/03/30 12:03:39;;;;;;;6.83;4.63;;;26.10;14.80;;;;;;5031506;28;39354;-89
2021/03/30 12:06:09;;;;;;;7.13;4.20;;;26.10;15.70;;;;;;5032993;28;37471;-90
2021/03/30 12:08:37;;;;;;;6.77;3.97;;;26.00;15.60;;;;;;5024424;28;41167;-87
2021/03/30 12:11:04;;;;;;;31.37;7.70;;;26.00;14.70;;;;;;5035550;28;40370;-88
2021/03/30 12:13:53;;;;;;;7.90;4.50;;;25.70;14.30;;;;;;5008942;28;38553;-87
2021/03/30 12:16:20;;;;;;;8.47;4.90;;;25.40;13.90;;;;;;5021901;28;36230;-88
2021/03/30 12:18:48;;;;;;;4.83;4.13;;;25.10;13.40;;;;;;5028966;28;41024;-88
2021/03/30 12:21:46;;;;;;;8.33;4.57;;;25.00;14.50;;;;;;5029823;28;40341;-87
2021/03/30 12:24:14;;;;;;;5.23;4.20;;;25.10;14.20;;;;;;5028414;28;38571;-87
2021/03/30 12:26:41;;;;;;;7.60;5.17;;;25.20;13.60;;;;;;5020738;28;37396;-88
2021/03/30 12:29:53;;;;;;;7.77;4.60;;;25.20;13.60;;;;;;5010323;28;39902;-90
2021/03/30 12:32:21;;;;;;;7.17;4.70;;;25.20;13.70;;;;;;5004211;28;37523;-90
2021/03/30 12:34:48;;;;;;;4.73;4.23;;;25.30;13.40;;;;;;5019462;28;38202;-91
2021/03/30 12:37:16;;;;;;;8.30;4.47;;;25.30;13.10;;;;;;5015680;28;37427;-88
2021/03/30 12:39:44;;;;;;;6.60;4.30;;;25.30;13.00;;;;;;5001273;28;39065;-91
2021/03/30 12:42:13;;;;;;;9.60;4.90;;;25.40;13.60;;;;;;5026502;28;39460;-91
2021/03/30 12:44:40;;;;;;;7.60;4.80;;;25.30;12.90;;;;;;5018406;28;37081;-89
2021/03/30 12:47:08;;;;;;;5.43;4.27;;;25.30;13.30;;;;;;5002923;28;36223;-85
2021/03/30 12:49:36;;;;;;;7.67;4.70;;;25.20;13.00;;;;;;4999831;28;38512;-87
2021/03/30 12:52:03;;;;;;;4.50;4.10;;;25.00;13.40;;;;;;5013733;28;38967;-87
2021/03/30 12:54:33;;;;;;;5.87;4.73;;;25.00;13.30;;;;;;5018975;28;38436;-87
2021/03/30 12:57:00;;;;;;;5.83;4.57;;;24.90;13.60;;;;;;5013574;28;37348;-88
2021/03/30 12:59:27;;;;;;;4.70;4.20;;;24.80;13.40;;;;;;5011377;28;39546;-92
2021/03/30 13:01:54;;;;;;;18.50;5.23;;;24.90;12.80;;;;;;4999781;28;42493;-90
2021/03/30 13:04:21;;;;;;;7.20;3.90;;;25.10;13.30;;;;;;4993442;28;37647;-90
2021/03/30 13:06:52;;;;;;;5.50;4.43;;;25.40;12.90;;;;;;4992764;28;37331;-91
2021/03/30 13:09:20;;;;;;;6.13;4.20;;;25.40;13.10;;;;;;4997166;28;38559;-91
2021/03/30 13:11:47;;;;;;;12.37;4.70;;;25.40;13.20;;;;;;5008834;28;39150;-89